Terminal Aerodrome Forecast
Issued by NWS Cleveland, OH

Home | Current Version | Previous Version | Text Only | Print | Product List | Glossary On
Versions: 1 2 3 4 5 6 7 8 9 10 11 12 13 14 15 16 17 18 19 20 21
468
FTUS41 KCLE 242324
TAFERI
TAF
KERI 242324Z 2500/2524 VRB03KT P6SM SKC
     FM251600 23006KT P6SM FEW250
     FM252100 32006KT P6SM SCT250=

USA.gov is the U.S. government's official web portal to all federal, state and local government web resources and services.